Time;durP1;ratioP1;P1;durP2;ratioP2;P2;SDS_P1;SDS_P2;PMS_P1;PMS_P2;Temp;Humidity;BMP_temperature;BMP_pressure;BME280_temperature;BME280_humidity;BME280_pressure;Samples;Min_cycle;Max_cycle;Signal;HPM_P1;HPM_P2
2022/12/27 00:02:25;;;;;;;10.13;2.15;;;3.10;99.90;;;;;;4828458;29;20050;-69
2022/12/27 00:04:52;;;;;;;11.82;1.85;;;3.10;99.90;;;;;;4825391;29;20061;-65
2022/12/27 00:07:19;;;;;;;8.57;2.03;;;3.10;99.90;;;;;;4820703;29;20061;-68
2022/12/27 00:09:44;;;;;;;14.57;2.00;;;3.10;99.90;;;;;;4836217;29;20095;-66
2022/12/27 00:12:10;;;;;;;9.52;1.70;;;3.10;99.90;;;;;;4830073;29;20089;-69
2022/12/27 00:14:36;;;;;;;13.90;2.17;;;3.10;99.90;;;;;;4839156;29;20148;-67
2022/12/27 00:17:02;;;;;;;9.10;2.05;;;3.20;99.90;;;;;;4828780;29;20049;-67
2022/12/27 00:19:28;;;;;;;12.10;2.30;;;3.30;99.90;;;;;;4812378;29;20501;-65
2022/12/27 00:21:53;;;;;;;13.05;3.28;;;3.30;99.90;;;;;;4840534;29;20160;-69
2022/12/27 00:24:19;;;;;;;9.27;2.30;;;3.40;99.90;;;;;;4826480;29;20679;-69
2022/12/27 00:26:45;;;;;;;6.80;2.08;;;3.40;99.90;;;;;;4828658;29;21074;-67
2022/12/27 00:29:11;;;;;;;14.15;2.60;;;3.40;99.90;;;;;;4834657;29;20054;-68
2022/12/27 00:31:36;;;;;;;9.63;2.15;;;3.40;99.90;;;;;;4842255;29;20057;-66
2022/12/27 00:34:06;;;;;;;13.57;2.53;;;3.40;99.90;;;;;;4826368;29;20054;-69
2022/12/27 00:36:32;;;;;;;12.30;2.38;;;3.40;99.90;;;;;;4829518;29;20297;-69
2022/12/27 00:38:59;;;;;;;11.93;2.17;;;3.40;99.90;;;;;;4842203;29;20049;-65
2022/12/27 00:41:26;;;;;;;12.05;3.25;;;3.40;99.90;;;;;;4823266;29;20054;-66
2022/12/27 00:43:52;;;;;;;10.88;2.50;;;3.30;99.90;;;;;;4835853;29;20229;-69
2022/12/27 00:46:18;;;;;;;13.07;2.35;;;3.40;99.90;;;;;;4807678;29;20424;-68
2022/12/27 00:48:45;;;;;;;13.57;3.33;;;3.40;99.90;;;;;;4843224;29;20058;-69
2022/12/27 00:51:14;;;;;;;9.30;2.20;;;3.30;99.90;;;;;;4840072;29;20046;-68
2022/12/27 00:53:40;;;;;;;10.32;2.60;;;3.30;99.90;;;;;;4842485;29;20093;-69
2022/12/27 00:56:13;;;;;;;12.77;2.47;;;3.30;99.90;;;;;;4827639;29;20053;-69
2022/12/27 00:58:39;;;;;;;11.40;2.20;;;3.30;99.90;;;;;;4834881;29;20077;-69
2022/12/27 01:01:14;;;;;;;16.60;2.58;;;3.40;99.90;;;;;;4825221;29;20167;-69
2022/12/27 01:03:40;;;;;;;9.32;2.53;;;3.40;99.90;;;;;;4841420;29;20077;-69
2022/12/27 01:06:14;;;;;;;16.85;2.67;;;3.40;99.90;;;;;;4808656;29;20120;-66
2022/12/27 01:08:41;;;;;;;20.30;2.65;;;3.50;99.90;;;;;;4821425;29;20143;-69
2022/12/27 01:11:07;;;;;;;14.48;2.17;;;3.50;99.90;;;;;;4838818;29;20541;-68
2022/12/27 01:13:34;;;;;;;9.27;2.28;;;3.50;99.90;;;;;;4837014;29;20059;-68
2022/12/27 01:16:00;;;;;;;10.98;2.83;;;3.60;99.90;;;;;;4835457;29;20058;-69
2022/12/27 01:18:25;;;;;;;10.98;2.15;;;3.60;99.90;;;;;;4835048;29;20085;-69
2022/12/27 01:20:51;;;;;;;10.73;2.17;;;3.50;99.90;;;;;;4839303;29;20046;-68
2022/12/27 01:23:17;;;;;;;15.77;2.40;;;3.60;99.90;;;;;;4835873;29;20192;-66
2022/12/27 01:25:43;;;;;;;14.68;2.72;;;3.60;99.90;;;;;;4834134;29;20057;-66
2022/12/27 01:28:09;;;;;;;14.77;2.38;;;3.60;99.90;;;;;;4821903;29;20552;-68
2022/12/27 01:30:34;;;;;;;12.18;2.35;;;3.70;99.90;;;;;;4817565;29;20129;-69
2022/12/27 01:33:00;;;;;;;9.85;2.00;;;3.70;99.90;;;;;;4823331;29;20135;-68
2022/12/27 01:35:26;;;;;;;13.45;2.63;;;3.80;99.90;;;;;;4833423;29;20060;-68
2022/12/27 01:37:52;;;;;;;18.27;3.13;;;3.80;99.90;;;;;;4840246;29;20154;-68
2022/12/27 01:40:18;;;;;;;13.48;2.50;;;3.90;99.90;;;;;;4821441;29;20045;-69
2022/12/27 01:42:53;;;;;;;16.70;2.30;;;4.00;99.90;;;;;;4836206;29;20053;-68
2022/12/27 01:45:27;;;;;;;13.35;2.42;;;4.10;99.90;;;;;;4831751;29;20186;-66
2022/12/27 01:48:16;;;;;;;10.32;1.88;;;4.20;99.90;;;;;;4833975;29;20128;-69
2022/12/27 01:50:48;;;;;;;13.32;2.00;;;4.30;99.90;;;;;;4819823;29;20049;-69
2022/12/27 01:53:32;;;;;;;11.70;2.07;;;4.30;99.90;;;;;;4840561;29;20049;-68
2022/12/27 01:55:59;;;;;;;14.90;1.98;;;4.30;99.90;;;;;;4826819;29;20622;-66
2022/12/27 01:58:34;;;;;;;14.85;2.28;;;4.30;99.90;;;;;;4839046;29;20054;-65
2022/12/27 02:01:01;;;;;;;13.65;2.45;;;4.40;99.90;;;;;;4834464;29;20045;-68
2022/12/27 02:03:41;;;;;;;9.95;2.60;;;4.40;99.90;;;;;;4821290;29;20061;-68
2022/12/27 02:06:10;;;;;;;14.40;2.67;;;4.40;99.90;;;;;;4837451;29;20052;-68
2022/12/27 02:09:04;;;;;;;12.43;2.40;;;4.40;99.90;;;;;;4835724;29;20069;-68
2022/12/27 02:11:51;;;;;;;6.53;1.58;;;4.40;99.90;;;;;;4817935;29;20157;-68
2022/12/27 02:14:33;;;;;;;10.82;1.70;;;4.40;99.90;;;;;;4821336;29;20103;-66
2022/12/27 02:17:15;;;;;;;6.63;1.60;;;4.40;99.90;;;;;;4821485;29;20109;-67
2022/12/27 02:19:40;;;;;;;11.68;1.92;;;4.50;99.90;;;;;;4825189;29;20050;-69
2022/12/27 02:22:27;;;;;;;7.05;1.58;;;4.50;99.90;;;;;;4840133;29;20061;-69
2022/12/27 02:25:24;;;;;;;4.07;1.50;;;4.50;99.90;;;;;;4823715;29;20080;-69
2022/12/27 02:28:01;;;;;;;6.70;1.63;;;4.50;99.90;;;;;;4836487;29;20053;-66
2022/12/27 02:30:32;;;;;;;9.13;1.80;;;4.50;99.90;;;;;;4815972;29;20038;-69
2022/12/27 02:33:14;;;;;;;6.65;1.85;;;4.50;99.90;;;;;;4835695;29;20042;-68
2022/12/27 02:35:59;;;;;;;11.48;1.90;;;4.40;99.90;;;;;;4835035;29;20058;-67
2022/12/27 02:38:35;;;;;;;11.77;2.55;;;4.40;99.90;;;;;;4838972;29;20058;-68
2022/12/27 02:58:59;;;;;;;9.20;1.77;;;4.40;99.90;;;;;;4836113;29;20052;-69
2022/12/27 03:05:02;;;;;;;9.80;1.88;;;4.40;99.90;;;;;;4837314;29;20058;-69
2022/12/27 03:07:28;;;;;;;14.93;2.25;;;4.40;99.90;;;;;;4833914;29;20062;-69
2022/12/27 03:16:56;;;;;;;13.50;2.30;;;4.30;99.90;;;;;;4785031;29;20514;-68
2022/12/27 03:33:11;;;;;;;11.85;2.28;;;4.40;99.90;;;;;;4819298;29;20052;-66
2022/12/27 03:33:26;;;;;;;14.60;2.58;;;4.40;99.90;;;;;;4823294;29;20065;-68
2022/12/27 03:39:19;;;;;;;10.73;2.00;;;4.40;99.90;;;;;;4798956;29;20485;-68
2022/12/27 03:44:38;;;;;;;11.87;2.83;;;4.30;99.90;;;;;;4824307;29;20173;-67
2022/12/27 03:47:26;;;;;;;10.32;2.00;;;4.30;99.90;;;;;;4837597;29;20140;-68
2022/12/27 03:49:59;;;;;;;8.52;1.85;;;4.30;99.90;;;;;;4837543;29;20073;-68
2022/12/27 03:52:34;;;;;;;13.77;2.72;;;4.30;99.90;;;;;;4820908;29;20062;-66
2022/12/27 03:55:01;;;;;;;14.40;3.08;;;4.30;99.90;;;;;;4834051;29;20125;-69
2022/12/27 03:57:27;;;;;;;14.52;2.53;;;4.30;99.90;;;;;;4824833;29;20130;-68
2022/12/27 03:59:53;;;;;;;9.50;1.83;;;4.20;99.90;;;;;;4818388;29;20194;-66
2022/12/27 04:02:19;;;;;;;10.57;2.35;;;4.20;99.90;;;;;;4822106;29;20057;-68
2022/12/27 04:04:45;;;;;;;10.77;2.10;;;4.20;99.90;;;;;;4824432;29;20049;-67
2022/12/27 04:07:14;;;;;;;11.60;2.92;;;4.20;99.90;;;;;;4822630;29;20056;-69
2022/12/27 04:37:06;;;;;;;14.63;2.40;;;4.10;99.90;;;;;;4824205;29;20128;-69
2022/12/27 04:39:32;;;;;;;15.93;2.67;;;4.10;99.90;;;;;;4821091;29;20072;-68
2022/12/27 04:54:55;;;;;;;10.73;2.42;;;4.10;99.90;;;;;;4816600;29;20105;-69
2022/12/27 04:55:55;;;;;;;9.95;2.05;;;4.20;99.90;;;;;;4841507;29;20560;-68
2022/12/27 04:58:20;;;;;;;7.53;2.13;;;4.10;99.90;;;;;;4833167;29;20105;-69
2022/12/27 05:03:32;;;;;;;8.70;1.83;;;4.10;99.90;;;;;;4837480;29;20055;-68
2022/12/27 05:06:00;;;;;;;11.27;2.03;;;4.10;99.90;;;;;;4821672;29;20053;-66
2022/12/27 05:13:59;;;;;;;12.93;2.83;;;4.00;99.90;;;;;;4840217;29;20061;-69
2022/12/27 05:16:30;;;;;;;14.60;2.80;;;4.00;99.90;;;;;;4821141;29;20045;-66
2022/12/27 05:18:56;;;;;;;11.23;2.50;;;3.90;99.90;;;;;;4820949;29;20057;-65
2022/12/27 05:21:22;;;;;;;9.95;2.63;;;3.90;99.90;;;;;;4840299;29;20110;-69
2022/12/27 05:26:33;;;;;;;11.23;2.72;;;3.80;99.90;;;;;;4835667;29;22170;-67
2022/12/27 05:28:59;;;;;;;17.25;3.78;;;3.70;99.90;;;;;;4837968;29;20117;-67
2022/12/27 05:31:27;;;;;;;14.30;2.70;;;3.70;99.90;;;;;;4824275;29;20061;-68
2022/12/27 05:33:53;;;;;;;16.73;3.17;;;3.70;99.90;;;;;;4823614;29;20057;-68
2022/12/27 05:36:19;;;;;;;16.67;3.05;;;3.70;99.90;;;;;;4820637;29;20041;-68
2022/12/27 05:38:46;;;;;;;15.40;2.40;;;3.70;99.90;;;;;;4821843;29;21015;-67
2022/12/27 05:41:12;;;;;;;14.98;2.65;;;3.70;99.90;;;;;;4824937;29;20084;-67
2022/12/27 05:43:38;;;;;;;13.05;2.38;;;3.80;99.90;;;;;;4828992;29;20732;-66
2022/12/27 05:46:08;;;;;;;14.48;2.75;;;3.60;99.90;;;;;;4815388;29;20061;-68
2022/12/27 05:48:35;;;;;;;15.00;2.60;;;3.60;99.90;;;;;;4823503;29;20076;-68
2022/12/27 05:51:06;;;;;;;13.85;2.85;;;3.60;99.90;;;;;;4825473;29;20408;-66
2022/12/27 05:53:32;;;;;;;11.05;2.58;;;3.60;99.90;;;;;;4836885;29;20061;-69
2022/12/27 05:55:59;;;;;;;10.70;2.78;;;3.60;99.90;;;;;;4789721;29;20416;-67
2022/12/27 05:58:25;;;;;;;12.45;2.28;;;3.50;99.90;;;;;;4820483;29;20053;-67
2022/12/27 06:00:51;;;;;;;9.88;2.38;;;3.50;99.90;;;;;;4820278;29;20048;-66
2022/12/27 06:03:17;;;;;;;13.90;2.88;;;3.50;99.90;;;;;;4821740;29;20352;-69
2022/12/27 06:05:43;;;;;;;14.07;3.03;;;3.40;99.90;;;;;;4837789;29;20168;-68
2022/12/27 06:08:09;;;;;;;12.77;2.97;;;3.40;99.90;;;;;;4822378;29;20497;-69
2022/12/27 06:10:35;;;;;;;18.95;3.53;;;3.40;99.90;;;;;;4831348;29;20261;-69
2022/12/27 06:13:01;;;;;;;13.23;2.90;;;3.40;99.90;;;;;;4837971;29;20057;-66
2022/12/27 06:15:27;;;;;;;16.48;2.65;;;3.40;99.90;;;;;;4832124;29;20061;-69
2022/12/27 06:17:53;;;;;;;12.75;2.75;;;3.30;99.90;;;;;;4818224;29;20049;-69
2022/12/27 06:20:20;;;;;;;12.75;2.65;;;3.30;99.90;;;;;;4838976;29;20049;-68
2022/12/27 06:22:46;;;;;;;12.38;2.65;;;3.30;99.90;;;;;;4822724;29;20092;-68
2022/12/27 06:25:13;;;;;;;16.02;2.70;;;3.30;99.90;;;;;;4824703;29;20068;-66
2022/12/27 06:27:39;;;;;;;15.10;2.60;;;3.30;99.90;;;;;;4822584;29;20057;-68
2022/12/27 06:30:06;;;;;;;10.48;2.60;;;3.30;99.90;;;;;;4821014;29;20060;-67
2022/12/27 06:32:33;;;;;;;15.45;2.63;;;3.30;99.90;;;;;;4822041;29;20520;-69
2022/12/27 06:34:59;;;;;;;20.42;3.45;;;3.30;99.90;;;;;;4824325;29;20504;-69
2022/12/27 06:37:25;;;;;;;16.05;2.60;;;3.20;99.90;;;;;;4838171;29;20686;-69
2022/12/27 06:39:51;;;;;;;14.23;2.70;;;3.30;99.90;;;;;;4836668;29;20049;-65
2022/12/27 06:42:16;;;;;;;14.35;3.03;;;3.20;99.90;;;;;;4835505;29;20098;-66
2022/12/27 06:44:42;;;;;;;19.80;3.22;;;3.30;99.90;;;;;;4837037;29;20059;-66
2022/12/27 06:47:08;;;;;;;14.07;3.08;;;3.20;99.90;;;;;;4836108;29;20073;-65
2022/12/27 06:49:34;;;;;;;16.92;3.30;;;3.20;99.90;;;;;;4824827;29;20158;-69
2022/12/27 06:51:59;;;;;;;16.20;3.00;;;3.20;99.90;;;;;;4822756;29;20098;-67
2022/12/27 06:54:26;;;;;;;17.83;2.65;;;3.20;99.90;;;;;;4818958;29;20050;-68
2022/12/27 06:56:51;;;;;;;14.65;2.88;;;3.20;99.90;;;;;;4834885;29;20190;-68
2022/12/27 06:59:17;;;;;;;15.25;2.85;;;3.10;99.90;;;;;;4836149;29;20053;-69
2022/12/27 07:01:43;;;;;;;18.25;2.85;;;3.10;99.90;;;;;;4832430;29;20133;-68
2022/12/27 07:04:09;;;;;;;12.55;2.85;;;3.10;99.90;;;;;;4834814;29;20084;-68
2022/12/27 07:06:36;;;;;;;12.70;2.97;;;3.10;99.90;;;;;;4813109;29;20061;-69
2022/12/27 07:09:02;;;;;;;10.68;2.53;;;3.00;99.90;;;;;;4826370;29;20069;-69
2022/12/27 07:11:32;;;;;;;14.02;2.92;;;3.00;99.90;;;;;;4837438;29;20110;-69
2022/12/27 07:13:57;;;;;;;13.57;2.55;;;3.00;99.90;;;;;;4820249;29;20127;-66
2022/12/27 07:16:26;;;;;;;11.95;3.42;;;3.00;99.90;;;;;;4818806;29;20050;-69
2022/12/27 07:18:53;;;;;;;11.48;2.58;;;3.00;99.90;;;;;;4826611;29;20157;-68
2022/12/27 07:21:21;;;;;;;13.60;2.83;;;2.90;99.90;;;;;;4823276;29;20539;-68
2022/12/27 07:23:47;;;;;;;14.57;2.47;;;2.90;99.90;;;;;;4820781;29;20049;-68
2022/12/27 07:26:26;;;;;;;16.98;2.78;;;2.90;99.90;;;;;;4835438;29;20412;-68
2022/12/27 07:28:53;;;;;;;19.35;3.38;;;2.90;99.90;;;;;;4812534;29;20099;-69
2022/12/27 07:31:22;;;;;;;18.90;3.20;;;2.90;99.90;;;;;;4839977;29;20046;-69
2022/12/27 07:33:48;;;;;;;12.55;3.20;;;2.90;99.90;;;;;;4808854;29;20458;-68
2022/12/27 07:36:21;;;;;;;13.43;2.67;;;2.90;99.90;;;;;;4829940;29;20157;-67
2022/12/27 07:38:47;;;;;;;12.95;2.95;;;2.90;99.90;;;;;;4826284;29;20046;-69
2022/12/27 07:41:13;;;;;;;16.23;2.80;;;2.80;99.90;;;;;;4834132;29;25780;-69
2022/12/27 07:43:40;;;;;;;16.05;2.85;;;2.90;99.90;;;;;;4822013;29;20060;-68
2022/12/27 07:46:09;;;;;;;16.60;3.40;;;2.80;99.90;;;;;;4837379;29;20552;-69
2022/12/27 07:48:36;;;;;;;16.25;3.83;;;2.80;99.90;;;;;;4815216;29;20517;-68
2022/12/27 07:51:02;;;;;;;13.65;3.00;;;2.90;99.90;;;;;;4836590;29;20062;-68
2022/12/27 07:53:29;;;;;;;9.85;2.38;;;2.90;99.90;;;;;;4838965;29;20046;-69
2022/12/27 07:55:54;;;;;;;14.73;2.50;;;2.90;99.90;;;;;;4839455;29;20121;-67
2022/12/27 07:58:20;;;;;;;13.60;2.80;;;2.90;99.90;;;;;;4825495;29;20046;-68
2022/12/27 08:00:48;;;;;;;13.90;2.78;;;3.00;99.90;;;;;;4828876;29;20050;-67
2022/12/27 08:03:14;;;;;;;14.13;2.97;;;2.90;99.90;;;;;;4836624;29;20048;-67
2022/12/27 08:05:51;;;;;;;17.35;3.30;;;2.90;99.90;;;;;;4831422;29;20085;-69
2022/12/27 08:08:21;;;;;;;14.32;2.90;;;2.90;99.90;;;;;;4837457;29;20053;-68
2022/12/27 08:10:47;;;;;;;15.55;3.13;;;3.00;99.90;;;;;;4829238;29;20070;-67
2022/12/27 08:13:12;;;;;;;13.85;3.15;;;2.90;99.90;;;;;;4836459;29;20053;-68
2022/12/27 08:15:41;;;;;;;16.98;3.10;;;2.90;99.90;;;;;;4832480;29;20046;-67
2022/12/27 08:18:07;;;;;;;15.07;2.90;;;2.80;99.90;;;;;;4823432;29;20082;-67
2022/12/27 08:20:33;;;;;;;13.90;3.35;;;3.00;99.90;;;;;;4823100;29;20052;-69
2022/12/27 08:22:59;;;;;;;19.88;3.25;;;2.90;99.90;;;;;;4838756;29;20053;-69
2022/12/27 08:25:27;;;;;;;12.65;2.90;;;2.90;99.90;;;;;;4836405;29;20049;-68
2022/12/27 08:28:01;;;;;;;15.73;2.90;;;2.80;99.90;;;;;;4836489;29;21307;-67
2022/12/27 08:30:27;;;;;;;11.10;2.83;;;2.80;99.90;;;;;;4823972;29;20065;-66
2022/12/27 08:32:53;;;;;;;17.20;2.80;;;2.80;99.90;;;;;;4817368;29;20520;-68
2022/12/27 08:35:18;;;;;;;12.90;2.50;;;2.80;99.90;;;;;;4817686;29;20885;-68
2022/12/27 08:37:44;;;;;;;11.82;3.05;;;2.80;99.90;;;;;;4828965;29;20050;-68
2022/12/27 08:40:10;;;;;;;15.65;3.03;;;2.80;99.90;;;;;;4831906;29;20037;-68
2022/12/27 08:42:36;;;;;;;19.67;2.95;;;2.90;99.90;;;;;;4831451;29;20105;-65
2022/12/27 08:45:02;;;;;;;16.02;3.92;;;2.90;99.90;;;;;;4832171;29;20065;-69
2022/12/27 08:47:28;;;;;;;13.77;3.40;;;2.90;99.90;;;;;;4833189;29;20064;-65
2022/12/27 08:49:54;;;;;;;17.55;3.38;;;2.90;99.90;;;;;;4816512;29;20175;-69
2022/12/27 08:52:19;;;;;;;20.85;3.40;;;2.90;99.90;;;;;;4834053;29;20050;-67
2022/12/27 08:54:45;;;;;;;15.23;3.33;;;2.90;99.90;;;;;;4813122;29;20064;-65
2022/12/27 08:57:11;;;;;;;14.32;2.92;;;2.90;99.90;;;;;;4820276;29;20076;-66
2022/12/27 08:59:37;;;;;;;15.80;3.40;;;2.90;99.90;;;;;;4826951;29;20072;-66
2022/12/27 09:02:02;;;;;;;20.50;3.38;;;3.00;99.90;;;;;;4818424;29;20083;-66
2022/12/27 09:04:28;;;;;;;16.83;3.22;;;3.00;99.90;;;;;;4823016;29;20061;-66
2022/12/27 09:06:54;;;;;;;15.93;3.90;;;3.10;99.90;;;;;;4822054;29;20058;-66
2022/12/27 09:09:20;;;;;;;19.65;3.22;;;3.10;99.90;;;;;;4837093;29;20072;-66
2022/12/27 09:11:45;;;;;;;20.08;3.47;;;3.10;99.90;;;;;;4838418;29;20121;-66
2022/12/27 09:14:11;;;;;;;12.27;2.85;;;3.20;99.90;;;;;;4824529;29;20064;-66
2022/12/27 09:16:37;;;;;;;18.73;2.67;;;3.20;99.90;;;;;;4821606;29;20056;-66
2022/12/27 09:19:04;;;;;;;11.85;3.05;;;3.30;99.90;;;;;;4819895;29;20054;-66
2022/12/27 09:21:32;;;;;;;14.32;2.67;;;3.30;99.90;;;;;;4827732;29;20049;-66
2022/12/27 09:23:58;;;;;;;12.75;3.00;;;3.30;99.90;;;;;;4822672;29;20116;-66
2022/12/27 09:26:27;;;;;;;16.60;3.22;;;3.40;99.90;;;;;;4837261;29;20591;-67
2022/12/27 09:28:54;;;;;;;15.68;2.70;;;3.40;99.90;;;;;;4820591;29;20056;-66
2022/12/27 09:31:20;;;;;;;18.67;3.85;;;3.50;99.90;;;;;;4834406;29;20410;-66
2022/12/27 09:33:46;;;;;;;12.73;3.00;;;3.50;99.90;;;;;;4826428;29;20065;-66
2022/12/27 09:36:19;;;;;;;13.68;3.10;;;3.50;99.90;;;;;;4837512;29;20094;-66
2022/12/27 09:38:45;;;;;;;18.98;3.33;;;3.60;99.90;;;;;;4833775;29;20050;-66
2022/12/27 09:41:22;;;;;;;14.73;3.00;;;3.70;99.90;;;;;;4810569;29;20054;-66
2022/12/27 09:43:58;;;;;;;14.50;3.30;;;3.70;99.90;;;;;;4833586;29;20076;-66
2022/12/27 09:46:38;;;;;;;19.98;3.63;;;3.70;99.90;;;;;;4829032;29;20475;-66
2022/12/27 09:49:05;;;;;;;16.08;3.60;;;3.70;99.90;;;;;;4813879;29;20053;-66
2022/12/27 09:51:40;;;;;;;14.25;3.03;;;3.80;99.90;;;;;;4821841;29;20081;-66
2022/12/27 09:54:47;;;;;;;15.15;3.17;;;3.80;99.90;;;;;;4824302;29;20114;-66
2022/12/27 09:57:19;;;;;;;16.48;3.58;;;3.90;99.90;;;;;;4835509;29;20114;-66
2022/12/27 09:59:48;;;;;;;16.77;3.00;;;4.00;99.90;;;;;;4823170;29;20054;-66
2022/12/27 10:02:23;;;;;;;13.90;3.22;;;4.00;99.90;;;;;;4838040;29;20457;-66
2022/12/27 10:04:50;;;;;;;18.58;3.60;;;4.10;99.90;;;;;;4819616;29;20058;-66
2022/12/27 10:07:48;;;;;;;15.32;3.03;;;4.20;99.90;;;;;;4828725;29;20159;-66
2022/12/27 10:10:30;;;;;;;16.88;3.40;;;4.30;99.90;;;;;;4798209;29;20076;-66
2022/12/27 10:13:04;;;;;;;11.50;3.42;;;4.40;99.90;;;;;;4827074;29;20057;-66
2022/12/27 10:15:52;;;;;;;13.30;3.20;;;4.50;99.90;;;;;;4816997;29;20052;-66
2022/12/27 10:18:45;;;;;;;13.07;3.13;;;4.60;99.90;;;;;;4817913;29;20060;-66
2022/12/27 10:21:11;;;;;;;;;;;4.70;99.90;;;;;;4821064;29;20428;-66
2022/12/27 10:23:42;;;;;;;17.45;3.40;;;4.90;99.90;;;;;;4828614;29;19928;-66
2022/12/27 10:26:14;;;;;;;15.82;3.28;;;5.00;99.90;;;;;;4817844;29;20133;-66
2022/12/27 10:28:59;;;;;;;15.88;3.78;;;5.10;99.90;;;;;;4828551;29;20405;-66
2022/12/27 10:31:26;;;;;;;19.25;4.05;;;5.30;99.90;;;;;;4825051;29;20132;-66
2022/12/27 10:33:53;;;;;;;17.65;3.65;;;5.40;99.90;;;;;;4830505;29;20060;-66
2022/12/27 10:36:26;;;;;;;15.85;3.90;;;5.50;99.90;;;;;;4828538;29;20088;-66
2022/12/27 10:38:53;;;;;;;10.63;3.47;;;5.70;99.90;;;;;;4829849;29;20079;-66
2022/12/27 10:41:35;;;;;;;15.35;3.97;;;5.70;99.90;;;;;;4826025;29;20046;-66
2022/12/27 10:44:08;;;;;;;15.38;3.50;;;5.80;99.90;;;;;;4836461;29;20124;-66
2022/12/27 10:46:33;;;;;;;19.85;3.35;;;5.80;99.90;;;;;;4830446;29;20054;-66
2022/12/27 10:49:06;;;;;;;10.25;2.70;;;5.90;99.90;;;;;;4820492;29;20046;-66
2022/12/27 10:51:37;;;;;;;9.60;2.95;;;6.00;99.90;;;;;;4832283;29;20060;-66
2022/12/27 10:54:11;;;;;;;11.77;2.88;;;6.10;99.90;;;;;;4841264;29;20050;-66
2022/12/27 10:56:40;;;;;;;15.30;3.22;;;6.20;99.90;;;;;;4834963;29;20216;-66
2022/12/27 10:59:24;;;;;;;9.57;2.78;;;6.20;99.90;;;;;;4829067;29;20588;-65
2022/12/27 11:01:59;;;;;;;9.70;2.75;;;6.20;99.90;;;;;;4827622;29;20113;-65
2022/12/27 11:04:25;;;;;;;14.07;3.35;;;6.30;99.90;;;;;;4840721;29;20046;-65
2022/12/27 11:07:12;;;;;;;17.65;3.08;;;6.40;99.90;;;;;;4831208;29;20053;-65
2022/12/27 11:09:40;;;;;;;15.13;3.20;;;6.50;99.90;;;;;;4835642;29;20532;-67
2022/12/27 11:12:23;;;;;;;9.50;2.45;;;6.60;99.90;;;;;;4818622;29;20056;-66
2022/12/27 11:14:55;;;;;;;13.85;2.80;;;6.70;99.90;;;;;;4821822;29;20050;-66
2022/12/27 11:17:25;;;;;;;12.57;2.58;;;6.80;99.90;;;;;;4835559;29;20527;-63
2022/12/27 11:19:51;;;;;;;8.80;2.53;;;6.70;99.90;;;;;;4838684;29;20912;-61
2022/12/27 11:22:17;;;;;;;16.65;2.92;;;6.80;99.90;;;;;;4836237;29;20046;-62
2022/12/27 11:24:46;;;;;;;15.73;3.05;;;6.80;99.90;;;;;;4838683;29;20049;-61
2022/12/27 11:27:23;;;;;;;11.73;3.13;;;6.80;99.90;;;;;;4836914;29;20042;-62
2022/12/27 11:29:50;;;;;;;9.75;2.40;;;6.70;99.90;;;;;;4837880;29;20049;-61
2022/12/27 11:32:17;;;;;;;10.52;2.60;;;6.70;99.90;;;;;;4839174;29;20191;-61
2022/12/27 11:34:47;;;;;;;10.65;2.95;;;6.70;99.90;;;;;;4842760;29;20050;-61
2022/12/27 11:37:18;;;;;;;12.60;3.03;;;6.70;99.90;;;;;;4823003;29;20065;-61
2022/12/27 11:39:48;;;;;;;8.20;2.47;;;6.80;99.90;;;;;;4841666;29;20050;-61
2022/12/27 11:42:31;;;;;;;15.30;2.58;;;6.70;99.90;;;;;;4844218;29;20072;-61
2022/12/27 11:45:13;;;;;;;14.75;2.67;;;6.70;99.90;;;;;;4837959;29;20087;-60
2022/12/27 11:47:55;;;;;;;10.07;2.70;;;6.80;99.90;;;;;;4842080;29;20114;-62
2022/12/27 11:50:49;;;;;;;10.52;2.40;;;6.80;99.90;;;;;;4836915;29;20057;-62
2022/12/27 11:53:41;;;;;;;15.68;2.70;;;6.80;99.90;;;;;;4838587;29;20064;-61
2022/12/27 11:56:25;;;;;;;13.80;2.53;;;6.80;99.90;;;;;;4837803;29;20463;-61
2022/12/27 11:59:16;;;;;;;12.80;2.65;;;6.80;99.90;;;;;;4816805;29;20101;-62
2022/12/27 12:02:03;;;;;;;11.35;2.72;;;6.70;99.90;;;;;;4835462;29;20052;-61
2022/12/27 12:05:13;;;;;;;12.50;2.63;;;6.70;99.90;;;;;;4832484;29;20052;-60
2022/12/27 12:08:02;;;;;;;15.25;2.40;;;6.70;99.90;;;;;;4836564;29;20117;-62
2022/12/27 12:10:44;;;;;;;10.05;2.72;;;6.70;99.90;;;;;;4833569;29;20065;-61
2022/12/27 12:13:11;;;;;;;16.85;3.30;;;6.70;99.90;;;;;;4834579;29;20354;-62
2022/12/27 12:16:04;;;;;;;10.88;3.13;;;6.60;99.90;;;;;;4841043;29;20552;-61
2022/12/27 12:19:06;;;;;;;10.23;2.63;;;6.60;99.90;;;;;;4842116;29;20050;-62
2022/12/27 12:21:52;;;;;;;16.75;2.58;;;6.60;99.90;;;;;;4842571;29;20053;-61
2022/12/27 12:24:30;;;;;;;18.63;3.72;;;6.60;99.90;;;;;;4842252;29;20128;-62
2022/12/27 12:27:24;;;;;;;16.33;2.80;;;6.50;99.90;;;;;;4840685;29;20052;-62
2022/12/27 12:30:09;;;;;;;11.90;2.35;;;6.60;99.90;;;;;;4841771;29;20097;-61
2022/12/27 12:33:16;;;;;;;10.38;2.80;;;6.50;99.90;;;;;;4841172;29;20511;-62
2022/12/27 12:35:55;;;;;;;17.25;3.78;;;6.60;99.90;;;;;;4839355;29;20501;-62
2022/12/27 12:38:22;;;;;;;14.75;2.88;;;6.60;99.90;;;;;;4833464;29;20044;-57
2022/12/27 12:41:23;;;;;;;14.20;2.95;;;6.60;99.90;;;;;;4823368;29;20136;-62
2022/12/27 12:43:49;;;;;;;11.52;2.33;;;6.60;99.90;;;;;;4835021;29;20058;-63
2022/12/27 12:46:32;;;;;;;13.02;2.72;;;6.60;99.90;;;;;;4837245;29;20061;-60
2022/12/27 12:49:06;;;;;;;7.53;2.35;;;6.60;99.90;;;;;;4834359;29;20065;-62
2022/12/27 12:51:46;;;;;;;13.98;2.88;;;6.70;99.90;;;;;;4832560;29;20124;-62
2022/12/27 12:54:27;;;;;;;14.50;3.10;;;6.70;99.90;;;;;;4831883;29;20054;-62
2022/12/27 12:57:11;;;;;;;12.25;3.47;;;6.70;99.90;;;;;;4831187;29;20053;-62
2022/12/27 12:59:52;;;;;;;15.85;3.30;;;6.80;99.90;;;;;;4834557;29;20097;-62
2022/12/27 13:02:55;;;;;;;12.48;4.20;;;6.80;99.90;;;;;;4828716;29;20038;-62
2022/12/27 13:05:45;;;;;;;18.45;4.35;;;6.70;99.90;;;;;;4832870;29;20050;-62
2022/12/27 13:08:20;;;;;;;17.15;4.93;;;6.70;99.90;;;;;;4828896;29;20508;-62
2022/12/27 13:11:28;;;;;;;14.60;4.93;;;6.70;99.90;;;;;;4832940;29;20057;-62
2022/12/27 13:14:25;;;;;;;11.75;2.80;;;6.70;99.90;;;;;;4830221;29;20165;-61
2022/12/27 13:16:51;;;;;;;11.00;3.28;;;6.60;99.90;;;;;;4833161;29;20061;-62
2022/12/27 13:19:26;;;;;;;14.80;3.20;;;6.60;99.90;;;;;;4833576;29;20054;-62
2022/12/27 13:22:19;;;;;;;13.60;3.40;;;6.60;99.90;;;;;;4833757;29;20054;-61
2022/12/27 13:24:57;;;;;;;13.15;3.70;;;6.60;99.90;;;;;;4835826;29;20046;-62
2022/12/27 13:27:44;;;;;;;12.43;3.55;;;6.60;99.90;;;;;;4834801;29;20082;-62
2022/12/27 13:30:23;;;;;;;16.10;4.38;;;6.50;99.90;;;;;;4833642;29;20060;-63
2022/12/27 13:33:13;;;;;;;20.05;6.15;;;6.50;99.90;;;;;;4834300;29;20061;-62
2022/12/27 13:35:57;;;;;;;23.38;5.88;;;6.40;99.90;;;;;;4841590;29;20605;-62
2022/12/27 13:38:39;;;;;;;12.63;4.88;;;6.40;99.90;;;;;;4839654;29;20045;-58
2022/12/27 13:41:21;;;;;;;19.87;5.10;;;6.30;99.90;;;;;;4826096;29;20115;-61
2022/12/27 13:44:18;;;;;;;20.20;4.28;;;6.20;99.90;;;;;;4832634;29;20318;-61
2022/12/27 13:47:22;;;;;;;17.75;5.07;;;6.20;99.90;;;;;;4835056;29;20847;-62
2022/12/27 13:50:22;;;;;;;14.48;5.20;;;6.10;99.90;;;;;;4820941;29;20049;-62
2022/12/27 13:53:23;;;;;;;16.00;4.10;;;6.10;99.90;;;;;;4833386;29;20229;-62
2022/12/27 13:55:53;;;;;;;11.63;3.38;;;6.10;99.90;;;;;;4806143;29;20062;-61
2022/12/27 13:58:21;;;;;;;11.82;3.30;;;6.00;99.90;;;;;;4835951;29;20114;-62
2022/12/27 14:01:10;;;;;;;24.60;3.78;;;6.00;99.90;;;;;;4830605;29;20057;-62
2022/12/27 14:03:58;;;;;;;12.13;3.53;;;5.90;99.90;;;;;;4830924;29;20072;-62
2022/12/27 14:07:14;;;;;;;17.40;5.53;;;5.90;99.90;;;;;;4832781;29;20045;-62
2022/12/27 14:10:06;;;;;;;15.93;5.43;;;5.90;99.90;;;;;;4810432;29;20065;-60
2022/12/27 14:12:55;;;;;;;18.63;5.70;;;5.80;99.90;;;;;;4827379;29;20134;-62
2022/12/27 14:15:40;;;;;;;18.58;7.35;;;5.80;99.90;;;;;;4815055;29;20084;-62
2022/12/27 14:18:21;;;;;;;17.35;6.88;;;5.80;99.90;;;;;;4833584;29;20057;-61
2022/12/27 14:21:14;;;;;;;15.57;6.82;;;5.90;99.90;;;;;;4822423;29;20084;-62
2022/12/27 14:24:14;;;;;;;18.58;6.50;;;5.90;99.90;;;;;;4830721;29;20541;-62
2022/12/27 14:27:05;;;;;;;17.30;7.13;;;5.90;99.90;;;;;;4830781;29;20041;-61
2022/12/27 14:30:03;;;;;;;17.60;6.70;;;5.90;99.90;;;;;;4832619;29;20050;-62
2022/12/27 14:33:03;;;;;;;14.75;5.72;;;5.90;99.90;;;;;;4822276;29;20045;-61
2022/12/27 14:35:55;;;;;;;16.13;5.95;;;5.90;99.90;;;;;;4817954;29;20458;-62
2022/12/27 14:38:58;;;;;;;12.40;5.22;;;5.90;99.90;;;;;;4817729;29;20054;-62
2022/12/27 14:41:44;;;;;;;20.25;8.02;;;5.90;99.90;;;;;;4833206;29;20470;-62
2022/12/27 14:44:49;;;;;;;17.65;6.55;;;5.90;99.90;;;;;;4834677;29;20206;-62
2022/12/27 14:47:27;;;;;;;14.82;6.93;;;5.90;99.90;;;;;;4819986;29;20580;-62
2022/12/27 14:49:56;;;;;;;21.92;7.05;;;5.80;99.90;;;;;;4832705;29;20050;-62
2022/12/27 14:52:32;;;;;;;20.33;9.07;;;5.80;99.90;;;;;;4831100;29;20170;-63
2022/12/27 14:55:19;;;;;;;22.40;8.90;;;5.80;99.90;;;;;;4834217;29;20424;-62
2022/12/27 14:58:01;;;;;;;16.08;7.50;;;5.80;99.90;;;;;;4832447;29;20134;-62